createdAt,value
2023-02-17T00:00:48.356Z,11.68
2023-02-17T00:03:36.838Z,11.71
2023-02-17T00:06:26.884Z,11.73
2023-02-17T00:09:15.603Z,11.73
2023-02-17T00:12:04.176Z,11.76
2023-02-17T00:14:54.487Z,11.82
2023-02-17T00:17:43.086Z,11.73
2023-02-17T00:20:31.787Z,11.74
2023-02-17T00:23:20.277Z,11.72
2023-02-17T00:26:09.455Z,11.81
2023-02-17T00:28:59.203Z,11.85
2023-02-17T00:31:49.163Z,11.86
2023-02-17T00:34:37.807Z,11.89
2023-02-17T00:37:26.382Z,11.82
2023-02-17T00:40:15.785Z,11.92
2023-02-17T00:43:04.241Z,11.80
2023-02-17T00:45:52.832Z,11.88
2023-02-17T00:48:42.864Z,11.89
2023-02-17T00:51:31.429Z,11.84
2023-02-17T00:54:20.382Z,11.81
2023-02-17T00:57:08.829Z,11.78
2023-02-17T00:59:57.274Z,11.80
2023-02-17T01:02:45.769Z,11.72
2023-02-17T01:05:36.063Z,11.69
2023-02-17T01:08:25.410Z,11.66
2023-02-17T01:11:18.467Z,11.62
2023-02-17T01:14:07.392Z,11.73
2023-02-17T01:16:55.883Z,11.77
2023-02-17T01:19:44.302Z,11.65
2023-02-17T01:22:34.768Z,11.50
2023-02-17T01:25:23.231Z,11.60
2023-02-17T01:28:15.741Z,11.55
2023-02-17T01:31:08.295Z,11.56
2023-02-17T01:33:57.989Z,11.58
2023-02-17T01:36:46.515Z,11.63
2023-02-17T01:39:36.367Z,11.60
2023-02-17T01:42:24.787Z,11.64
2023-02-17T01:45:34.091Z,11.55
2023-02-17T01:48:24.053Z,11.60
2023-02-17T01:51:17.956Z,11.73
2023-02-17T01:54:08.620Z,11.45
2023-02-17T01:57:00.151Z,11.60
2023-02-17T01:59:49.117Z,11.58
2023-02-17T02:02:37.838Z,11.58
2023-02-17T02:05:26.411Z,11.58
2023-02-17T02:08:15.214Z,11.60
2023-02-17T02:11:03.658Z,11.67
2023-02-17T02:13:53.549Z,11.66
2023-02-17T02:16:46.677Z,11.60
2023-02-17T02:19:58.578Z,11.54
2023-02-17T02:23:01.712Z,11.68
2023-02-17T02:26:16.393Z,11.70
2023-02-17T02:29:21.018Z,11.74
2023-02-17T02:32:26.534Z,11.72
2023-02-17T02:35:17.869Z,11.74
2023-02-17T02:38:10.760Z,11.68
2023-02-17T02:41:04.012Z,11.72
2023-02-17T02:43:55.204Z,11.67
2023-02-17T02:46:43.708Z,11.58
2023-02-17T02:49:35.068Z,11.59
2023-02-17T02:52:28.267Z,11.58
2023-02-17T02:55:20.989Z,11.60
2023-02-17T02:58:13.919Z,11.51
2023-02-17T03:01:06.326Z,11.24
2023-02-17T03:04:04.092Z,11.46
2023-02-17T03:06:56.928Z,11.59
2023-02-17T03:09:45.408Z,11.56
2023-02-17T03:12:34.367Z,11.55
2023-02-17T03:15:26.970Z,11.45
2023-02-17T03:18:15.605Z,11.45
2023-02-17T03:21:07.896Z,11.43
2023-02-17T03:23:57.767Z,11.45
2023-02-17T03:26:46.469Z,11.48
2023-02-17T03:29:35.147Z,11.10
2023-02-17T03:32:23.748Z,11.47
2023-02-17T03:35:12.297Z,11.42
2023-02-17T03:38:00.826Z,11.37
2023-02-17T03:40:50.640Z,11.17
2023-02-17T03:43:39.149Z,11.33
2023-02-17T03:46:27.542Z,11.27
2023-02-17T03:49:16.026Z,11.25
2023-02-17T03:52:04.815Z,11.03
2023-02-17T03:54:53.607Z,11.26
2023-02-17T03:57:43.396Z,11.23
2023-02-17T04:00:31.877Z,11.30
2023-02-17T04:03:20.354Z,11.27
2023-02-17T04:06:09.716Z,10.63
2023-02-17T04:08:58.202Z,11.20
2023-02-17T04:11:46.676Z,11.12
2023-02-17T04:14:36.818Z,11.06
2023-02-17T04:17:25.331Z,10.97
2023-02-17T04:20:14.097Z,10.97
2023-02-17T04:23:02.623Z,10.84
2023-02-17T04:25:51.108Z,10.89
2023-02-17T04:28:40.627Z,10.78
2023-02-17T04:31:30.573Z,10.77
2023-02-17T04:34:19.156Z,10.82
2023-02-17T04:37:07.791Z,10.75
2023-02-17T04:39:56.271Z,10.87
2023-02-17T04:42:44.714Z,10.99
2023-02-17T04:45:33.405Z,10.79
2023-02-17T04:48:23.562Z,10.81
2023-02-17T04:51:12.051Z,10.78
2023-02-17T04:54:00.531Z,10.82
2023-02-17T04:56:49.157Z,10.79
2023-02-17T04:59:37.862Z,10.76
2023-02-17T05:02:26.869Z,10.91
2023-02-17T05:05:18.750Z,11.03
2023-02-17T05:08:07.277Z,11.06
2023-02-17T05:10:55.760Z,11.11
2023-02-17T05:13:44.263Z,11.14
2023-02-17T05:16:32.732Z,11.23
2023-02-17T05:19:21.372Z,11.21
2023-02-17T05:22:11.296Z,11.24
2023-02-17T05:24:59.776Z,11.19
2023-02-17T05:27:48.239Z,11.07
2023-02-17T05:30:36.828Z,11.01
2023-02-17T05:33:25.329Z,11.15
2023-02-17T05:36:14.217Z,11.07
2023-02-17T05:39:04.102Z,11.01
2023-02-17T05:41:52.547Z,11.08
2023-02-17T05:44:41.027Z,11.11
2023-02-17T05:47:29.692Z,11.06
2023-02-17T05:50:18.309Z,11.09
2023-02-17T05:53:06.822Z,11.01
2023-02-17T05:55:56.640Z,11.00
2023-02-17T05:58:45.198Z,10.95
2023-02-17T06:01:34.429Z,10.84
2023-02-17T06:04:24.094Z,10.71
2023-02-17T06:07:13.632Z,10.93
2023-02-17T06:10:02.104Z,10.94
2023-02-17T06:12:52.064Z,10.97
2023-02-17T06:15:40.533Z,10.95
2023-02-17T06:18:29.256Z,10.94
2023-02-17T06:21:17.736Z,10.85
2023-02-17T06:24:06.855Z,10.87
2023-02-17T06:26:55.331Z,10.98
2023-02-17T06:29:45.631Z,10.93
2023-02-17T06:32:34.679Z,10.94
2023-02-17T06:35:23.158Z,10.91
2023-02-17T06:38:11.701Z,10.82
2023-02-17T06:41:00.185Z,10.90
2023-02-17T06:43:48.915Z,10.88
2023-02-17T06:46:38.658Z,11.04
2023-02-17T06:49:27.266Z,10.97
2023-02-17T06:52:15.816Z,11.00
2023-02-17T06:55:04.833Z,10.91
2023-02-17T06:57:53.339Z,11.06
2023-02-17T07:00:41.769Z,11.07
2023-02-17T07:03:32.554Z,11.07
2023-02-17T07:06:21.153Z,11.04
2023-02-17T07:09:11.495Z,11.14
2023-02-17T07:12:00.113Z,11.21
2023-02-17T07:14:48.942Z,11.25
2023-02-17T07:17:37.500Z,11.23
2023-02-17T07:20:27.358Z,11.25
2023-02-17T07:23:15.880Z,11.27
2023-02-17T07:26:05.508Z,11.36
2023-02-17T07:28:54.186Z,11.37
2023-02-17T07:31:42.789Z,11.40
2023-02-17T07:34:31.306Z,11.36
2023-02-17T07:37:21.917Z,11.37
2023-02-17T07:40:11.056Z,11.36
2023-02-17T07:42:59.614Z,11.39
2023-02-17T07:45:48.185Z,11.45
2023-02-17T07:48:36.839Z,11.17
2023-02-17T07:51:25.848Z,11.54
2023-02-17T07:54:16.031Z,11.56
2023-02-17T07:57:04.693Z,11.58
2023-02-17T07:59:53.186Z,11.55
2023-02-17T08:02:41.736Z,11.61
2023-02-17T08:05:30.248Z,11.60
2023-02-17T08:08:36.172Z,11.70
2023-02-17T08:11:40.288Z,11.74
2023-02-17T08:14:31.540Z,11.73
2023-02-17T08:17:20.031Z,11.69
2023-02-17T08:20:09.531Z,11.49
2023-02-17T08:22:58.148Z,11.61
2023-02-17T08:25:46.679Z,11.46
2023-02-17T08:28:36.498Z,11.65
2023-02-17T08:31:28.580Z,11.52
2023-02-17T08:34:17.419Z,11.50
2023-02-17T08:37:07.122Z,11.53
2023-02-17T08:39:55.625Z,11.49
2023-02-17T08:42:44.264Z,11.46
2023-02-17T08:45:34.293Z,11.55
2023-02-17T08:48:22.836Z,11.61
2023-02-17T08:51:13.591Z,11.60
2023-02-17T08:54:03.473Z,11.28
2023-02-17T08:56:52.069Z,11.62
2023-02-17T08:59:40.596Z,11.58
2023-02-17T09:02:30.480Z,11.69
2023-02-17T09:05:19.105Z,11.65
2023-02-17T09:08:07.646Z,11.72
2023-02-17T09:10:56.190Z,11.73
2023-02-17T09:13:45.099Z,11.78
2023-02-17T09:16:33.853Z,11.84
2023-02-17T09:19:24.473Z,11.86
2023-02-17T09:22:29.761Z,11.84
2023-02-17T09:25:20.079Z,11.85
2023-02-17T09:28:08.676Z,11.84
2023-02-17T09:30:57.293Z,11.81
2023-02-17T09:33:47.737Z,11.88
2023-02-17T09:36:40.499Z,11.84
2023-02-17T09:39:28.930Z,11.90
2023-02-17T09:42:20.441Z,11.91
2023-02-17T09:45:13.065Z,11.97
2023-02-17T09:48:04.721Z,11.97
2023-02-17T09:50:58.132Z,12.12
2023-02-17T09:53:53.694Z,12.23
2023-02-17T09:56:46.103Z,12.32
2023-02-17T09:59:38.460Z,12.41
2023-02-17T10:02:34.720Z,12.54
2023-02-17T10:05:26.075Z,12.80
2023-02-17T10:08:19.229Z,12.95
2023-02-17T10:11:14.842Z,12.89
2023-02-17T10:14:07.307Z,13.10
2023-02-17T10:16:58.883Z,13.01
2023-02-17T10:19:52.596Z,12.93
2023-02-17T10:22:45.016Z,12.92
2023-02-17T10:25:49.968Z,12.82
2023-02-17T10:28:51.407Z,13.02
2023-02-17T10:31:45.752Z,12.99
2023-02-17T10:34:37.066Z,13.03
2023-02-17T10:37:31.008Z,13.00
2023-02-17T10:40:21.685Z,12.77
2023-02-17T10:43:11.512Z,13.04
2023-02-17T10:46:04.299Z,13.13
2023-02-17T10:48:54.858Z,13.15
2023-02-17T10:51:43.526Z,13.11
2023-02-17T10:54:38.993Z,13.03
2023-02-17T10:57:32.217Z,13.08
2023-02-17T11:00:21.489Z,13.15
2023-02-17T11:03:21.466Z,13.35
2023-02-17T11:06:18.155Z,13.38
2023-02-17T11:09:10.940Z,13.36
2023-02-17T11:12:01.130Z,13.23
2023-02-17T11:14:51.760Z,13.49
2023-02-17T11:17:40.955Z,13.39
2023-02-17T11:20:34.620Z,13.19
2023-02-17T11:23:24.811Z,13.33
2023-02-17T11:26:20.160Z,13.40
2023-02-17T11:29:10.227Z,13.45
2023-02-17T11:32:02.165Z,13.41
2023-02-17T11:34:58.673Z,13.29
2023-02-17T11:37:48.576Z,13.74
2023-02-17T11:40:37.208Z,13.53
2023-02-17T11:43:25.841Z,13.59
2023-02-17T11:46:24.607Z,13.56
2023-02-17T11:49:36.449Z,13.23
2023-02-17T11:52:35.878Z,13.37
2023-02-17T11:55:35.909Z,13.30
2023-02-17T11:58:32.990Z,13.18
2023-02-17T12:01:35.577Z,13.10
2023-02-17T12:04:26.948Z,13.10
2023-02-17T12:07:47.934Z,12.99
2023-02-17T12:10:46.977Z,13.05
2023-02-17T12:13:42.776Z,13.10
2023-02-17T12:16:41.226Z,13.16
2023-02-17T12:19:41.436Z,13.18
2023-02-17T12:22:34.154Z,13.25
2023-02-17T12:25:26.764Z,13.21
2023-02-17T12:28:38.659Z,13.29
2023-02-17T12:31:43.105Z,13.28
2023-02-17T12:34:34.586Z,13.31
2023-02-17T12:37:25.229Z,13.56
2023-02-17T12:40:32.930Z,13.64
2023-02-17T12:43:27.168Z,13.69
2023-02-17T12:46:17.857Z,13.73
2023-02-17T12:49:12.071Z,13.74
2023-02-17T12:52:05.356Z,13.73
2023-02-17T12:54:57.196Z,13.45
2023-02-17T12:57:48.707Z,13.74
2023-02-17T13:00:41.941Z,13.78
2023-02-17T13:03:31.072Z,13.84
2023-02-17T13:06:25.009Z,13.82
2023-02-17T13:09:19.545Z,13.97
2023-02-17T13:12:12.698Z,14.06
2023-02-17T13:15:03.243Z,14.09
2023-02-17T13:18:01.300Z,14.10
2023-02-17T13:20:58.888Z,14.17
2023-02-17T13:23:59.770Z,14.27
2023-02-17T13:26:48.301Z,14.17
2023-02-17T13:29:37.250Z,14.16
2023-02-17T13:32:29.272Z,14.22
2023-02-17T13:35:32.527Z,14.11
2023-02-17T13:38:28.349Z,14.05
2023-02-17T13:41:16.875Z,13.91
2023-02-17T13:44:26.948Z,13.80
2023-02-17T13:47:18.464Z,13.81
2023-02-17T13:50:08.674Z,13.88
2023-02-17T13:52:58.609Z,13.83
2023-02-17T13:55:47.116Z,13.86
2023-02-17T13:58:37.208Z,13.75
2023-02-17T14:01:28.813Z,13.64
2023-02-17T14:04:21.078Z,12.91
2023-02-17T14:07:11.862Z,13.43
2023-02-17T14:10:01.722Z,13.37
2023-02-17T14:12:50.610Z,13.35
2023-02-17T14:15:39.966Z,13.35
2023-02-17T14:18:34.991Z,13.36
2023-02-17T14:21:26.554Z,13.36
2023-02-17T14:24:25.809Z,13.33
2023-02-17T14:27:15.712Z,13.35
2023-02-17T14:30:05.721Z,13.32
2023-02-17T14:33:02.615Z,13.36
2023-02-17T14:35:53.246Z,13.39
2023-02-17T14:38:42.518Z,13.52
2023-02-17T14:41:31.103Z,13.64
2023-02-17T14:44:20.948Z,13.70
2023-02-17T14:47:09.489Z,13.76
2023-02-17T14:49:57.933Z,13.81
2023-02-17T14:52:48.280Z,13.72
2023-02-17T14:55:39.388Z,13.77
2023-02-17T14:58:28.303Z,13.72
2023-02-17T15:01:19.978Z,13.73
2023-02-17T15:04:08.556Z,13.77
2023-02-17T15:06:57.019Z,13.74
2023-02-17T15:09:46.337Z,13.67
2023-02-17T15:12:34.841Z,13.78
2023-02-17T15:15:23.942Z,13.67
2023-02-17T15:18:13.916Z,13.61
2023-02-17T15:21:02.661Z,13.64
2023-02-17T15:23:51.138Z,13.63
2023-02-17T15:26:39.589Z,13.68
2023-02-17T15:29:28.463Z,13.67
2023-02-17T15:32:18.865Z,13.70
2023-02-17T15:35:17.613Z,13.73
2023-02-17T15:38:06.137Z,13.62
2023-02-17T15:40:56.736Z,13.63
2023-02-17T15:43:46.857Z,13.65
2023-02-17T15:46:36.582Z,13.53
2023-02-17T15:49:25.067Z,13.57
2023-02-17T15:52:15.779Z,13.39
2023-02-17T15:55:04.738Z,13.54
2023-02-17T15:57:55.942Z,13.50
2023-02-17T16:00:46.447Z,13.62
2023-02-17T16:03:34.998Z,13.62
2023-02-17T16:06:23.742Z,13.64
2023-02-17T16:09:13.593Z,13.61
2023-02-17T16:12:02.765Z,13.60
2023-02-17T16:14:51.294Z,13.70
2023-02-17T16:17:39.853Z,13.67
2023-02-17T16:20:30.206Z,13.62
2023-02-17T16:23:18.879Z,13.59
2023-02-17T16:26:15.672Z,13.27
2023-02-17T16:29:10.652Z,13.71
2023-02-17T16:31:59.278Z,13.73
2023-02-17T16:34:48.522Z,13.19
2023-02-17T16:37:37.047Z,13.63
2023-02-17T16:40:27.594Z,13.70
2023-02-17T16:43:19.475Z,13.70
2023-02-17T16:46:08.266Z,13.13
2023-02-17T16:48:57.446Z,13.68
2023-02-17T16:51:46.009Z,13.58
2023-02-17T16:54:35.813Z,13.58
2023-02-17T16:57:24.853Z,13.49
2023-02-17T17:00:17.462Z,13.46
2023-02-17T17:03:05.892Z,13.44
2023-02-17T17:05:54.438Z,13.41
2023-02-17T17:08:42.907Z,13.37
2023-02-17T17:11:32.148Z,13.44
2023-02-17T17:14:21.814Z,13.39
2023-02-17T17:17:12.441Z,13.36
2023-02-17T17:20:00.898Z,13.41
2023-02-17T17:22:50.118Z,13.46
2023-02-17T17:25:40.640Z,13.46
2023-02-17T17:28:29.135Z,13.29
2023-02-17T17:31:19.643Z,13.50
2023-02-17T17:34:09.603Z,13.52
2023-02-17T17:36:59.593Z,13.41
2023-02-17T17:39:48.082Z,13.38
2023-02-17T17:42:37.667Z,13.36
2023-02-17T17:45:26.875Z,13.41
2023-02-17T17:48:16.443Z,13.11
2023-02-17T17:51:06.608Z,13.32
2023-02-17T17:53:55.365Z,13.45
2023-02-17T17:56:44.308Z,13.39
2023-02-17T17:59:32.874Z,13.38
2023-02-17T18:02:21.367Z,13.26
2023-02-17T18:05:10.310Z,13.40
2023-02-17T18:08:00.285Z,13.36
2023-02-17T18:10:48.811Z,13.48
2023-02-17T18:13:38.036Z,13.37
2023-02-17T18:16:28.046Z,13.36
2023-02-17T18:19:18.791Z,13.37
2023-02-17T18:22:07.397Z,13.35
2023-02-17T18:24:57.190Z,13.30
2023-02-17T18:27:47.214Z,13.29
2023-02-17T18:30:35.733Z,13.29
2023-02-17T18:33:24.425Z,13.27
2023-02-17T18:36:15.841Z,13.26
2023-02-17T18:39:04.494Z,13.05
2023-02-17T18:41:54.732Z,13.23
2023-02-17T18:44:43.266Z,13.24
2023-02-17T18:47:31.939Z,13.25
2023-02-17T18:50:20.566Z,13.13
2023-02-17T18:53:09.016Z,13.23
2023-02-17T18:55:57.488Z,13.26
2023-02-17T18:58:47.526Z,13.19
2023-02-17T19:01:39.081Z,13.19
2023-02-17T19:04:27.643Z,13.12
2023-02-17T19:07:16.087Z,13.23
2023-02-17T19:10:05.814Z,13.12
2023-02-17T19:12:54.381Z,13.11
2023-02-17T19:15:44.332Z,13.15
2023-02-17T19:18:32.835Z,13.12
2023-02-17T19:21:22.128Z,13.15
2023-02-17T19:24:10.725Z,13.12
2023-02-17T19:26:59.212Z,12.73
2023-02-17T19:29:47.882Z,13.10
2023-02-17T19:32:37.945Z,13.03
2023-02-17T19:35:26.455Z,13.01
2023-02-17T19:38:15.030Z,12.93
2023-02-17T19:41:04.253Z,12.61
2023-02-17T19:43:52.882Z,12.78
2023-02-17T19:46:41.649Z,12.83
2023-02-17T19:49:31.539Z,12.83
2023-02-17T19:52:21.057Z,12.84
2023-02-17T19:55:10.033Z,12.84
2023-02-17T19:57:58.472Z,12.81
2023-02-17T20:00:47.087Z,12.74
2023-02-17T20:03:35.926Z,12.71
2023-02-17T20:06:27.528Z,12.69
2023-02-17T20:09:18.055Z,12.61
2023-02-17T20:12:07.173Z,12.60
2023-02-17T20:14:55.862Z,12.51
2023-02-17T20:17:44.556Z,12.53
2023-02-17T20:20:33.051Z,12.41
2023-02-17T20:23:23.185Z,12.46
2023-02-17T20:26:13.292Z,12.51
2023-02-17T20:29:02.991Z,12.40
2023-02-17T20:31:51.723Z,12.43
2023-02-17T20:34:40.574Z,12.50
2023-02-17T20:37:29.082Z,12.45
2023-02-17T20:40:18.959Z,12.42
2023-02-17T20:43:07.412Z,12.46
2023-02-17T20:45:56.123Z,12.58
2023-02-17T20:48:44.592Z,12.49
2023-02-17T20:51:33.060Z,12.50
2023-02-17T20:54:21.568Z,12.50
2023-02-17T20:57:15.084Z,12.51
2023-02-17T21:00:04.836Z,12.55
2023-02-17T21:02:53.452Z,12.25
2023-02-17T21:05:42.098Z,12.52
2023-02-17T21:08:30.941Z,12.49
2023-02-17T21:11:19.667Z,12.56
2023-02-17T21:14:10.105Z,12.56
2023-02-17T21:16:58.619Z,12.58
2023-02-17T21:19:47.275Z,12.67
2023-02-17T21:22:37.081Z,12.69
2023-02-17T21:25:25.569Z,12.64
2023-02-17T21:28:16.619Z,12.58
2023-02-17T21:31:07.523Z,12.62
2023-02-17T21:33:56.197Z,12.72
2023-02-17T21:36:44.628Z,12.75
2023-02-17T21:39:33.114Z,12.75
2023-02-17T21:42:43.127Z,12.82
2023-02-17T21:45:37.510Z,12.80
2023-02-17T21:48:27.513Z,12.85
2023-02-17T21:51:16.132Z,12.83
2023-02-17T21:54:05.240Z,13.01
2023-02-17T21:56:53.738Z,12.98
2023-02-17T21:59:44.035Z,12.96
2023-02-17T22:02:32.531Z,13.01
2023-02-17T22:05:22.355Z,13.01
2023-02-17T22:08:10.829Z,13.03
2023-02-17T22:10:59.406Z,12.99
2023-02-17T22:13:47.872Z,12.92
2023-02-17T22:16:37.040Z,12.94
2023-02-17T22:19:26.556Z,12.96
2023-02-17T22:22:16.440Z,13.03
2023-02-17T22:25:05.191Z,13.06
2023-02-17T22:27:53.735Z,13.03
2023-02-17T22:30:42.172Z,13.13
2023-02-17T22:33:30.789Z,13.07
2023-02-17T22:36:21.044Z,13.14
2023-02-17T22:39:10.909Z,13.12
2023-02-17T22:41:59.385Z,13.09
2023-02-17T22:44:47.936Z,13.08
2023-02-17T22:47:36.435Z,13.11
2023-02-17T22:50:24.879Z,13.14
2023-02-17T22:53:13.449Z,13.10
2023-02-17T22:56:04.151Z,13.08
2023-02-17T22:58:56.346Z,13.15
2023-02-17T23:01:46.170Z,13.13
2023-02-17T23:04:34.734Z,13.15
2023-02-17T23:07:23.530Z,13.16
2023-02-17T23:10:12.275Z,13.14
2023-02-17T23:13:02.106Z,13.14
2023-02-17T23:15:50.657Z,13.13
2023-02-17T23:18:39.139Z,13.11
2023-02-17T23:21:27.644Z,13.14
2023-02-17T23:24:16.963Z,13.15
2023-02-17T23:27:05.802Z,13.14
2023-02-17T23:29:55.866Z,13.19
2023-02-17T23:32:44.477Z,13.18
2023-02-17T23:35:32.938Z,13.14
2023-02-17T23:38:21.965Z,13.15
2023-02-17T23:41:11.651Z,13.19
2023-02-17T23:44:00.149Z,13.20
2023-02-17T23:46:49.976Z,13.21
2023-02-17T23:49:38.424Z,13.27
2023-02-17T23:52:27.121Z,13.17
2023-02-17T23:55:15.629Z,13.20
2023-02-17T23:58:04.168Z,13.25
